sensor_id;sensor_type;location;lat;lon;timestamp;noise_LAeq;noise_LA_min;noise_LA_max;noise_LA01;noise_LA95
66462;Laerm;56839;52.208;5.074;2022-07-29T00:00:03;47.15;35.53;58.94;;
66462;Laerm;56839;52.208;5.074;2022-07-29T00:00:14;47.43;34.92;56.49;;
66462;Laerm;56839;52.208;5.074;2022-07-29T00:00:25;38.26;33.61;49.72;;
66462;Laerm;56839;52.208;5.074;2022-07-29T00:00:35;45.56;36.05;53.94;;
66462;Laerm;56839;52.208;5.074;2022-07-29T00:00:45;38.64;34.22;49.31;;
66462;Laerm;56839;52.208;5.074;2022-07-29T00:01:01;44.25;34.69;54.93;;
66462;Laerm;56839;52.208;5.074;2022-07-29T00:01:20;44.49;34.46;54.72;;
66462;Laerm;56839;52.208;5.074;2022-07-29T00:01:32;43.33;34.82;55.90;;
66462;Laerm;56839;52.208;5.074;2022-07-29T00:01:43;43.03;34.60;51.53;;
66462;Laerm;56839;52.208;5.074;2022-07-29T00:01:53;47.33;36.86;60.14;;
66462;Laerm;56839;52.208;5.074;2022-07-29T00:02:04;45.53;34.68;53.64;;
66462;Laerm;56839;52.208;5.074;2022-07-29T00:02:14;36.96;32.37;45.28;;
66462;Laerm;56839;52.208;5.074;2022-07-29T00:02:24;38.78;32.97;50.82;;
66462;Laerm;56839;52.208;5.074;2022-07-29T00:02:35;35.77;32.43;46.13;;
66462;Laerm;56839;52.208;5.074;2022-07-29T00:02:50;36.48;32.40;45.70;;
66462;Laerm;56839;52.208;5.074;2022-07-29T00:03:01;46.55;33.79;55.80;;
66462;Laerm;56839;52.208;5.074;2022-07-29T00:03:12;47.44;38.45;57.04;;
66462;Laerm;56839;52.208;5.074;2022-07-29T00:03:23;47.73;37.30;59.51;;
66462;Laerm;56839;52.208;5.074;2022-07-29T00:03:33;50.55;40.11;65.16;;
66462;Laerm;56839;52.208;5.074;2022-07-29T00:03:44;43.20;33.88;54.12;;
66462;Laerm;56839;52.208;5.074;2022-07-29T00:03:54;37.95;32.77;47.17;;
66462;Laerm;56839;52.208;5.074;2022-07-29T00:04:04;35.48;33.15;39.10;;
66462;Laerm;56839;52.208;5.074;2022-07-29T00:04:15;41.04;33.63;54.88;;
66462;Laerm;56839;52.208;5.074;2022-07-29T00:04:25;45.62;38.17;56.98;;
66462;Laerm;56839;52.208;5.074;2022-07-29T00:04:35;45.25;37.62;56.57;;
66462;Laerm;56839;52.208;5.074;2022-07-29T00:04:46;42.16;35.00;51.60;;
66462;Laerm;56839;52.208;5.074;2022-07-29T00:04:56;42.34;35.76;51.18;;
66462;Laerm;56839;52.208;5.074;2022-07-29T00:05:07;44.70;36.72;52.86;;
66462;Laerm;56839;52.208;5.074;2022-07-29T00:05:18;44.06;36.49;55.00;;
66462;Laerm;56839;52.208;5.074;2022-07-29T00:05:31;37.78;32.39;48.03;;
66462;Laerm;56839;52.208;5.074;2022-07-29T00:05:41;35.57;32.59;43.44;;
66462;Laerm;56839;52.208;5.074;2022-07-29T00:05:52;43.98;34.99;55.96;;
66462;Laerm;56839;52.208;5.074;2022-07-29T00:06:03;43.11;34.68;50.52;;
66462;Laerm;56839;52.208;5.074;2022-07-29T00:06:13;38.90;32.96;52.77;;
66462;Laerm;56839;52.208;5.074;2022-07-29T00:06:26;44.65;35.13;56.53;;
66462;Laerm;56839;52.208;5.074;2022-07-29T00:06:36;40.25;34.81;49.28;;
66462;Laerm;56839;52.208;5.074;2022-07-29T00:06:46;40.24;35.46;49.53;;
66462;Laerm;56839;52.208;5.074;2022-07-29T00:06:57;41.11;33.82;49.88;;
66462;Laerm;56839;52.208;5.074;2022-07-29T00:07:10;41.26;33.93;54.76;;
66462;Laerm;56839;52.208;5.074;2022-07-29T00:07:21;48.18;38.37;58.67;;
66462;Laerm;56839;52.208;5.074;2022-07-29T00:07:31;46.41;36.53;58.02;;
66462;Laerm;56839;52.208;5.074;2022-07-29T00:07:41;48.08;37.94;63.41;;
66462;Laerm;56839;52.208;5.074;2022-07-29T00:07:51;45.95;38.15;57.65;;
66462;Laerm;56839;52.208;5.074;2022-07-29T00:08:02;39.18;35.41;47.08;;
66462;Laerm;56839;52.208;5.074;2022-07-29T00:08:12;51.09;38.45;64.04;;
66462;Laerm;56839;52.208;5.074;2022-07-29T00:08:26;40.01;36.98;47.77;;
66462;Laerm;56839;52.208;5.074;2022-07-29T00:08:36;51.54;38.10;60.66;;
66462;Laerm;56839;52.208;5.074;2022-07-29T00:08:46;37.04;34.83;41.94;;
66462;Laerm;56839;52.208;5.074;2022-07-29T00:08:57;45.36;35.19;59.96;;
66462;Laerm;56839;52.208;5.074;2022-07-29T00:09:07;46.75;34.35;58.41;;
66462;Laerm;56839;52.208;5.074;2022-07-29T00:09:18;36.18;32.76;43.66;;
66462;Laerm;56839;52.208;5.074;2022-07-29T00:09:28;36.49;32.67;46.31;;
66462;Laerm;56839;52.208;5.074;2022-07-29T00:09:38;39.83;32.83;52.61;;
66462;Laerm;56839;52.208;5.074;2022-07-29T00:09:49;35.39;32.44;44.35;;
66462;Laerm;56839;52.208;5.074;2022-07-29T00:09:59;43.99;32.45;55.67;;
66462;Laerm;56839;52.208;5.074;2022-07-29T00:10:12;37.20;32.56;44.60;;
66462;Laerm;56839;52.208;5.074;2022-07-29T00:10:23;37.15;33.09;44.69;;
66462;Laerm;56839;52.208;5.074;2022-07-29T00:10:33;36.96;33.57;43.62;;
66462;Laerm;56839;52.208;5.074;2022-07-29T00:10:44;43.63;33.97;55.62;;
66462;Laerm;56839;52.208;5.074;2022-07-29T00:10:55;44.58;33.44;58.47;;
66462;Laerm;56839;52.208;5.074;2022-07-29T00:11:05;36.60;33.40;44.86;;
66462;Laerm;56839;52.208;5.074;2022-07-29T00:11:15;37.11;33.98;46.44;;
66462;Laerm;56839;52.208;5.074;2022-07-29T00:11:25;37.85;34.64;52.04;;
66462;Laerm;56839;52.208;5.074;2022-07-29T00:11:36;42.79;35.64;54.71;;
66462;Laerm;56839;52.208;5.074;2022-07-29T00:11:46;38.10;34.40;49.77;;
66462;Laerm;56839;52.208;5.074;2022-07-29T00:11:58;49.95;36.76;59.89;;
66462;Laerm;56839;52.208;5.074;2022-07-29T00:12:09;48.57;36.39;62.41;;
66462;Laerm;56839;52.208;5.074;2022-07-29T00:12:20;46.62;37.55;58.06;;
66462;Laerm;56839;52.208;5.074;2022-07-29T00:12:30;41.33;36.21;55.33;;
66462;Laerm;56839;52.208;5.074;2022-07-29T00:12:41;37.55;34.95;44.29;;
66462;Laerm;56839;52.208;5.074;2022-07-29T00:12:51;48.58;37.18;59.97;;
66462;Laerm;56839;52.208;5.074;2022-07-29T00:13:01;48.34;39.17;60.76;;
66462;Laerm;56839;52.208;5.074;2022-07-29T00:13:12;52.81;42.52;61.33;;
66462;Laerm;56839;52.208;5.074;2022-07-29T00:13:22;45.59;38.12;56.75;;
66462;Laerm;56839;52.208;5.074;2022-07-29T00:13:32;49.89;39.00;63.63;;
66462;Laerm;56839;52.208;5.074;2022-07-29T00:13:43;44.02;36.24;58.11;;
66462;Laerm;56839;52.208;5.074;2022-07-29T00:13:53;41.44;36.27;50.94;;
66462;Laerm;56839;52.208;5.074;2022-07-29T00:14:04;47.19;37.62;58.01;;
66462;Laerm;56839;52.208;5.074;2022-07-29T00:14:14;45.15;37.10;53.92;;
66462;Laerm;56839;52.208;5.074;2022-07-29T00:14:25;46.83;36.89;58.37;;
66462;Laerm;56839;52.208;5.074;2022-07-29T00:14:35;41.96;35.99;51.88;;
66462;Laerm;56839;52.208;5.074;2022-07-29T00:14:46;40.84;36.95;52.10;;
66462;Laerm;56839;52.208;5.074;2022-07-29T00:14:56;39.69;36.32;46.30;;
66462;Laerm;56839;52.208;5.074;2022-07-29T00:15:07;55.92;36.33;68.38;;
66462;Laerm;56839;52.208;5.074;2022-07-29T00:15:17;54.47;36.45;67.14;;
66462;Laerm;56839;52.208;5.074;2022-07-29T00:15:28;41.03;35.33;51.17;;
66462;Laerm;56839;52.208;5.074;2022-07-29T00:15:38;45.35;35.83;58.45;;
66462;Laerm;56839;52.208;5.074;2022-07-29T00:15:48;45.74;36.58;55.36;;
66462;Laerm;56839;52.208;5.074;2022-07-29T00:15:59;41.35;35.95;51.62;;
66462;Laerm;56839;52.208;5.074;2022-07-29T00:16:12;42.86;35.00;53.44;;
66462;Laerm;56839;52.208;5.074;2022-07-29T00:16:23;37.31;34.10;45.64;;
66462;Laerm;56839;52.208;5.074;2022-07-29T00:16:33;44.93;33.83;55.12;;
66462;Laerm;56839;52.208;5.074;2022-07-29T00:16:44;38.46;34.56;49.16;;
66462;Laerm;56839;52.208;5.074;2022-07-29T00:16:54;40.51;33.92;51.02;;
66462;Laerm;56839;52.208;5.074;2022-07-29T00:17:05;37.29;34.01;50.21;;
66462;Laerm;56839;52.208;5.074;2022-07-29T00:17:15;43.47;36.33;55.78;;
66462;Laerm;56839;52.208;5.074;2022-07-29T00:17:25;48.08;33.35;56.52;;
66462;Laerm;56839;52.208;5.074;2022-07-29T00:17:36;34.80;32.60;41.08;;
66462;Laerm;56839;52.208;5.074;2022-07-29T00:17:46;36.77;33.29;47.16;;
66462;Laerm;56839;52.208;5.074;2022-07-29T00:17:56;43.65;35.89;55.14;;
66462;Laerm;56839;52.208;5.074;2022-07-29T00:18:07;42.10;36.71;50.04;;
66462;Laerm;56839;52.208;5.074;2022-07-29T00:18:17;40.69;34.57;52.86;;
66462;Laerm;56839;52.208;5.074;2022-07-29T00:18:27;40.94;36.12;47.91;;
66462;Laerm;56839;52.208;5.074;2022-07-29T00:18:38;43.24;33.35;55.43;;
66462;Laerm;56839;52.208;5.074;2022-07-29T00:18:49;35.71;33.26;41.89;;
66462;Laerm;56839;52.208;5.074;2022-07-29T00:18:59;43.59;33.82;58.29;;
66462;Laerm;56839;52.208;5.074;2022-07-29T00:19:10;39.18;33.24;51.77;;
66462;Laerm;56839;52.208;5.074;2022-07-29T00:19:20;35.88;32.82;40.89;;
66462;Laerm;56839;52.208;5.074;2022-07-29T00:19:30;40.48;34.53;52.30;;
66462;Laerm;56839;52.208;5.074;2022-07-29T00:19:41;41.13;33.81;49.86;;
66462;Laerm;56839;52.208;5.074;2022-07-29T00:19:51;44.11;34.91;51.86;;
66462;Laerm;56839;52.208;5.074;2022-07-29T00:20:02;40.30;33.73;49.57;;
66462;Laerm;56839;52.208;5.074;2022-07-29T00:20:12;42.43;32.71;56.39;;
66462;Laerm;56839;52.208;5.074;2022-07-29T00:20:23;43.21;34.08;52.07;;
66462;Laerm;56839;52.208;5.074;2022-07-29T00:20:33;38.23;32.75;46.23;;
66462;Laerm;56839;52.208;5.074;2022-07-29T00:20:44;34.55;31.41;42.94;;
66462;Laerm;56839;52.208;5.074;2022-07-29T00:20:54;34.43;31.38;42.63;;
66462;Laerm;56839;52.208;5.074;2022-07-29T00:21:04;40.37;32.50;51.50;;
66462;Laerm;56839;52.208;5.074;2022-07-29T00:21:15;46.46;32.86;58.01;;
66462;Laerm;56839;52.208;5.074;2022-07-29T00:21:25;41.54;34.93;51.64;;
66462;Laerm;56839;52.208;5.074;2022-07-29T00:21:35;44.21;34.83;57.42;;
66462;Laerm;56839;52.208;5.074;2022-07-29T00:21:46;46.43;37.54;56.54;;
66462;Laerm;56839;52.208;5.074;2022-07-29T00:21:58;43.53;32.97;53.48;;
66462;Laerm;56839;52.208;5.074;2022-07-29T00:22:09;45.36;34.54;60.83;;
66462;Laerm;56839;52.208;5.074;2022-07-29T00:22:22;46.27;35.05;59.38;;
66462;Laerm;56839;52.208;5.074;2022-07-29T00:22:32;47.60;39.43;57.18;;
66462;Laerm;56839;52.208;5.074;2022-07-29T00:22:42;48.75;39.86;58.52;;
66462;Laerm;56839;52.208;5.074;2022-07-29T00:22:53;44.59;35.84;52.21;;
66462;Laerm;56839;52.208;5.074;2022-07-29T00:23:03;39.67;35.02;51.25;;
66462;Laerm;56839;52.208;5.074;2022-07-29T00:23:14;37.01;33.54;43.58;;
66462;Laerm;56839;52.208;5.074;2022-07-29T00:23:24;40.42;33.29;54.16;;
66462;Laerm;56839;52.208;5.074;2022-07-29T00:23:35;49.63;34.16;64.20;;
66462;Laerm;56839;52.208;5.074;2022-07-29T00:23:45;37.63;31.97;49.93;;
66462;Laerm;56839;52.208;5.074;2022-07-29T00:23:55;35.50;32.90;40.95;;
66462;Laerm;56839;52.208;5.074;2022-07-29T00:24:09;36.61;33.48;44.83;;
66462;Laerm;56839;52.208;5.074;2022-07-29T00:24:19;40.69;34.02;49.53;;
66462;Laerm;56839;52.208;5.074;2022-07-29T00:24:30;47.86;37.02;57.26;;
66462;Laerm;56839;52.208;5.074;2022-07-29T00:24:40;50.78;39.21;59.86;;
66462;Laerm;56839;52.208;5.074;2022-07-29T00:24:50;48.99;38.10;63.69;;
66462;Laerm;56839;52.208;5.074;2022-07-29T00:25:01;51.57;39.91;61.40;;
66462;Laerm;56839;52.208;5.074;2022-07-29T00:25:12;45.49;38.47;56.93;;
66462;Laerm;56839;52.208;5.074;2022-07-29T00:25:22;50.18;38.58;64.49;;
66462;Laerm;56839;52.208;5.074;2022-07-29T00:25:33;44.45;38.20;54.58;;
66462;Laerm;56839;52.208;5.074;2022-07-29T00:25:43;51.23;39.14;61.46;;
66462;Laerm;56839;52.208;5.074;2022-07-29T00:25:53;43.75;36.98;54.12;;
66462;Laerm;56839;52.208;5.074;2022-07-29T00:26:04;48.24;36.99;61.99;;
66462;Laerm;56839;52.208;5.074;2022-07-29T00:26:14;48.29;37.42;58.77;;
66462;Laerm;56839;52.208;5.074;2022-07-29T00:26:25;46.39;35.60;55.75;;
66462;Laerm;56839;52.208;5.074;2022-07-29T00:26:37;39.33;34.65;49.03;;
66462;Laerm;56839;52.208;5.074;2022-07-29T00:26:51;42.86;35.26;52.24;;
66462;Laerm;56839;52.208;5.074;2022-07-29T00:27:02;39.40;32.15;56.47;;
66462;Laerm;56839;52.208;5.074;2022-07-29T00:27:12;37.23;33.32;48.05;;
66462;Laerm;56839;52.208;5.074;2022-07-29T00:27:23;34.58;31.30;43.85;;
66462;Laerm;56839;52.208;5.074;2022-07-29T00:27:34;36.51;32.35;44.37;;
66462;Laerm;56839;52.208;5.074;2022-07-29T00:27:44;38.27;34.15;49.65;;
66462;Laerm;56839;52.208;5.074;2022-07-29T00:27:56;35.57;32.61;40.98;;
66462;Laerm;56839;52.208;5.074;2022-07-29T00:28:06;47.14;35.31;59.46;;
66462;Laerm;56839;52.208;5.074;2022-07-29T00:28:17;44.68;32.48;56.03;;
66462;Laerm;56839;52.208;5.074;2022-07-29T00:28:27;37.41;31.38;48.58;;
66462;Laerm;56839;52.208;5.074;2022-07-29T00:28:37;43.41;35.02;53.93;;
66462;Laerm;56839;52.208;5.074;2022-07-29T00:28:48;45.86;35.47;56.10;;
66462;Laerm;56839;52.208;5.074;2022-07-29T00:29:01;40.23;33.99;52.96;;
66462;Laerm;56839;52.208;5.074;2022-07-29T00:29:12;39.56;33.74;50.27;;
66462;Laerm;56839;52.208;5.074;2022-07-29T00:29:22;37.84;34.30;48.72;;
66462;Laerm;56839;52.208;5.074;2022-07-29T00:29:33;49.11;34.38;62.39;;
66462;Laerm;56839;52.208;5.074;2022-07-29T00:29:43;41.16;33.86;50.94;;
66462;Laerm;56839;52.208;5.074;2022-07-29T00:29:53;42.09;33.61;51.68;;
66462;Laerm;56839;52.208;5.074;2022-07-29T00:30:04;35.47;32.20;45.59;;
66462;Laerm;56839;52.208;5.074;2022-07-29T00:30:15;40.83;33.72;51.46;;
66462;Laerm;56839;52.208;5.074;2022-07-29T00:30:25;43.26;34.58;55.41;;
66462;Laerm;56839;52.208;5.074;2022-07-29T00:30:36;54.07;39.00;63.63;;
66462;Laerm;56839;52.208;5.074;2022-07-29T00:30:46;37.55;34.19;47.09;;
66462;Laerm;56839;52.208;5.074;2022-07-29T00:30:56;36.79;34.01;45.93;;
66462;Laerm;56839;52.208;5.074;2022-07-29T00:31:07;38.40;33.77;45.70;;
66462;Laerm;56839;52.208;5.074;2022-07-29T00:31:18;36.88;34.42;41.33;;
66462;Laerm;56839;52.208;5.074;2022-07-29T00:31:28;38.46;32.71;50.66;;
66462;Laerm;56839;52.208;5.074;2022-07-29T00:31:39;45.62;34.47;55.52;;
66462;Laerm;56839;52.208;5.074;2022-07-29T00:31:49;39.09;33.30;53.18;;
66462;Laerm;56839;52.208;5.074;2022-07-29T00:32:00;39.45;33.00;50.32;;
66462;Laerm;56839;52.208;5.074;2022-07-29T00:32:10;47.03;38.11;56.41;;
66462;Laerm;56839;52.208;5.074;2022-07-29T00:32:21;51.44;36.67;64.66;;
66462;Laerm;56839;52.208;5.074;2022-07-29T00:32:31;39.32;33.89;48.64;;
66462;Laerm;56839;52.208;5.074;2022-07-29T00:32:42;43.48;37.24;50.84;;
66462;Laerm;56839;52.208;5.074;2022-07-29T00:32:52;38.90;35.54;48.36;;
66462;Laerm;56839;52.208;5.074;2022-07-29T00:33:06;38.65;35.37;46.47;;
66462;Laerm;56839;52.208;5.074;2022-07-29T00:33:16;46.57;35.73;60.47;;
66462;Laerm;56839;52.208;5.074;2022-07-29T00:33:26;44.42;36.52;55.24;;
66462;Laerm;56839;52.208;5.074;2022-07-29T00:33:37;39.11;33.24;50.63;;
66462;Laerm;56839;52.208;5.074;2022-07-29T00:33:49;44.46;33.48;56.93;;
66462;Laerm;56839;52.208;5.074;2022-07-29T00:34:00;44.43;35.13;55.66;;
66462;Laerm;56839;52.208;5.074;2022-07-29T00:34:10;46.28;37.40;58.18;;
66462;Laerm;56839;52.208;5.074;2022-07-29T00:34:39;43.57;33.92;57.54;;
66462;Laerm;56839;52.208;5.074;2022-07-29T00:35:08;48.68;32.01;64.75;;
66462;Laerm;56839;52.208;5.074;2022-07-29T00:35:37;39.44;31.15;56.47;;
66462;Laerm;56839;52.208;5.074;2022-07-29T00:35:54;33.39;30.26;46.44;;
66462;Laerm;56839;52.208;5.074;2022-07-29T00:36:04;33.45;29.81;42.50;;
66462;Laerm;56839;52.208;5.074;2022-07-29T00:36:15;38.03;31.85;48.35;;
66462;Laerm;56839;52.208;5.074;2022-07-29T00:36:25;39.37;31.58;50.16;;
66462;Laerm;56839;52.208;5.074;2022-07-29T00:36:35;38.37;32.66;48.81;;
66462;Laerm;56839;52.208;5.074;2022-07-29T00:36:45;35.75;33.59;43.05;;
66462;Laerm;56839;52.208;5.074;2022-07-29T00:36:56;34.48;32.34;40.99;;
66462;Laerm;56839;52.208;5.074;2022-07-29T00:37:06;38.04;32.70;49.23;;
66462;Laerm;56839;52.208;5.074;2022-07-29T00:37:17;46.46;35.93;56.87;;
66462;Laerm;56839;52.208;5.074;2022-07-29T00:37:27;51.96;41.69;60.21;;
66462;Laerm;56839;52.208;5.074;2022-07-29T00:37:37;45.11;34.74;56.76;;
66462;Laerm;56839;52.208;5.074;2022-07-29T00:37:48;37.35;33.87;53.39;;
66462;Laerm;56839;52.208;5.074;2022-07-29T00:37:58;36.89;34.20;42.92;;
66462;Laerm;56839;52.208;5.074;2022-07-29T00:38:09;45.12;36.41;58.83;;
66462;Laerm;56839;52.208;5.074;2022-07-29T00:38:19;43.90;32.75;54.78;;
66462;Laerm;56839;52.208;5.074;2022-07-29T00:38:32;44.24;31.13;56.15;;
66462;Laerm;56839;52.208;5.074;2022-07-29T00:38:43;33.60;30.35;45.39;;
66462;Laerm;56839;52.208;5.074;2022-07-29T00:38:55;38.25;32.49;47.57;;
66462;Laerm;56839;52.208;5.074;2022-07-29T00:39:05;36.50;32.45;45.49;;
66462;Laerm;56839;52.208;5.074;2022-07-29T00:39:15;42.19;34.25;51.68;;
66462;Laerm;56839;52.208;5.074;2022-07-29T00:39:26;42.71;37.00;50.84;;
66462;Laerm;56839;52.208;5.074;2022-07-29T00:39:36;41.74;33.59;51.83;;
66462;Laerm;56839;52.208;5.074;2022-07-29T00:39:47;43.67;33.67;54.70;;
66462;Laerm;56839;52.208;5.074;2022-07-29T00:39:57;38.75;33.96;49.17;;
66462;Laerm;56839;52.208;5.074;2022-07-29T00:40:08;42.52;33.81;53.75;;
66462;Laerm;56839;52.208;5.074;2022-07-29T00:40:18;38.08;33.15;45.76;;
66462;Laerm;56839;52.208;5.074;2022-07-29T00:40:28;40.53;34.74;50.42;;
66462;Laerm;56839;52.208;5.074;2022-07-29T00:40:39;50.99;39.99;65.08;;
66462;Laerm;56839;52.208;5.074;2022-07-29T00:40:49;38.38;35.13;46.20;;
66462;Laerm;56839;52.208;5.074;2022-07-29T00:41:00;36.44;33.37;42.33;;
66462;Laerm;56839;52.208;5.074;2022-07-29T00:41:11;41.52;36.32;49.81;;
66462;Laerm;56839;52.208;5.074;2022-07-29T00:41:22;44.92;35.59;57.99;;
66462;Laerm;56839;52.208;5.074;2022-07-29T00:41:32;51.24;35.05;63.81;;
66462;Laerm;56839;52.208;5.074;2022-07-29T00:41:42;36.49;34.19;44.48;;
66462;Laerm;56839;52.208;5.074;2022-07-29T00:41:52;35.56;32.87;38.87;;
66462;Laerm;56839;52.208;5.074;2022-07-29T00:42:04;37.83;33.26;46.10;;
66462;Laerm;56839;52.208;5.074;2022-07-29T00:42:14;41.64;35.54;55.79;;
66462;Laerm;56839;52.208;5.074;2022-07-29T00:42:26;38.41;33.48;50.92;;
66462;Laerm;56839;52.208;5.074;2022-07-29T00:42:43;48.14;36.33;60.23;;
66462;Laerm;56839;52.208;5.074;2022-07-29T00:42:53;45.04;36.63;56.07;;
66462;Laerm;56839;52.208;5.074;2022-07-29T00:43:04;47.35;37.79;57.80;;
66462;Laerm;56839;52.208;5.074;2022-07-29T00:43:14;41.72;36.30;54.70;;
66462;Laerm;56839;52.208;5.074;2022-07-29T00:43:24;42.54;36.07;54.56;;
66462;Laerm;56839;52.208;5.074;2022-07-29T00:43:35;42.23;34.90;53.97;;
66462;Laerm;56839;52.208;5.074;2022-07-29T00:43:45;43.93;35.13;51.54;;
66462;Laerm;56839;52.208;5.074;2022-07-29T00:43:55;46.21;36.34;57.64;;
66462;Laerm;56839;52.208;5.074;2022-07-29T00:44:06;39.90;34.46;46.84;;
66462;Laerm;56839;52.208;5.074;2022-07-29T00:44:16;40.00;33.11;50.38;;
66462;Laerm;56839;52.208;5.074;2022-07-29T00:44:26;37.42;33.29;45.17;;
66462;Laerm;56839;52.208;5.074;2022-07-29T00:44:40;42.00;33.93;56.22;;
66462;Laerm;56839;52.208;5.074;2022-07-29T00:44:50;35.72;32.68;44.85;;
66462;Laerm;56839;52.208;5.074;2022-07-29T00:45:01;51.31;35.09;63.49;;
66462;Laerm;56839;52.208;5.074;2022-07-29T00:45:11;39.93;32.53;50.02;;
66462;Laerm;56839;52.208;5.074;2022-07-29T00:45:22;35.01;32.46;42.75;;
66462;Laerm;56839;52.208;5.074;2022-07-29T00:45:33;36.00;33.40;40.70;;
66462;Laerm;56839;52.208;5.074;2022-07-29T00:45:43;36.35;34.42;45.30;;
66462;Laerm;56839;52.208;5.074;2022-07-29T00:45:54;35.87;33.31;45.97;;
66462;Laerm;56839;52.208;5.074;2022-07-29T00:46:04;35.23;32.61;41.30;;
66462;Laerm;56839;52.208;5.074;2022-07-29T00:46:14;35.20;31.65;44.85;;
66462;Laerm;56839;52.208;5.074;2022-07-29T00:46:25;34.10;31.08;45.48;;
66462;Laerm;56839;52.208;5.074;2022-07-29T00:46:35;38.97;32.14;53.40;;
66462;Laerm;56839;52.208;5.074;2022-07-29T00:46:45;46.92;32.69;58.41;;
66462;Laerm;56839;52.208;5.074;2022-07-29T00:46:55;35.76;32.90;41.98;;
66462;Laerm;56839;52.208;5.074;2022-07-29T00:47:06;34.28;31.94;39.66;;
66462;Laerm;56839;52.208;5.074;2022-07-29T00:47:16;37.33;32.57;49.94;;
66462;Laerm;56839;52.208;5.074;2022-07-29T00:47:27;43.91;33.64;56.05;;
66462;Laerm;56839;52.208;5.074;2022-07-29T00:47:37;39.64;33.14;47.29;;
66462;Laerm;56839;52.208;5.074;2022-07-29T00:47:48;39.49;32.07;50.92;;
66462;Laerm;56839;52.208;5.074;2022-07-29T00:47:58;45.55;36.28;57.37;;
66462;Laerm;56839;52.208;5.074;2022-07-29T00:48:09;39.54;33.84;50.41;;
66462;Laerm;56839;52.208;5.074;2022-07-29T00:48:20;39.47;33.44;51.27;;
66462;Laerm;56839;52.208;5.074;2022-07-29T00:48:30;40.82;34.00;53.54;;
66462;Laerm;56839;52.208;5.074;2022-07-29T00:48:41;38.93;32.39;48.71;;
66462;Laerm;56839;52.208;5.074;2022-07-29T00:48:51;34.58;31.12;48.09;;
66462;Laerm;56839;52.208;5.074;2022-07-29T00:49:01;39.66;34.50;47.08;;
66462;Laerm;56839;52.208;5.074;2022-07-29T00:49:12;44.91;35.68;55.40;;
66462;Laerm;56839;52.208;5.074;2022-07-29T00:49:22;44.35;35.33;55.34;;
66462;Laerm;56839;52.208;5.074;2022-07-29T00:49:33;41.62;34.32;61.19;;
66462;Laerm;56839;52.208;5.074;2022-07-29T00:49:44;43.74;35.54;53.93;;
66462;Laerm;56839;52.208;5.074;2022-07-29T00:49:54;36.77;32.44;44.81;;
66462;Laerm;56839;52.208;5.074;2022-07-29T00:50:05;38.94;33.20;45.32;;
66462;Laerm;56839;52.208;5.074;2022-07-29T00:50:15;38.48;33.44;47.79;;
66462;Laerm;56839;52.208;5.074;2022-07-29T00:50:26;36.60;33.93;41.89;;
66462;Laerm;56839;52.208;5.074;2022-07-29T00:50:37;34.98;32.09;44.45;;
66462;Laerm;56839;52.208;5.074;2022-07-29T00:50:48;39.26;31.71;48.62;;
66462;Laerm;56839;52.208;5.074;2022-07-29T00:50:59;40.17;33.13;50.17;;
66462;Laerm;56839;52.208;5.074;2022-07-29T00:51:11;42.00;34.43;53.30;;
66462;Laerm;56839;52.208;5.074;2022-07-29T00:51:21;46.38;37.70;55.98;;
66462;Laerm;56839;52.208;5.074;2022-07-29T00:51:32;44.76;36.56;53.82;;
66462;Laerm;56839;52.208;5.074;2022-07-29T00:51:42;41.56;36.07;48.19;;
66462;Laerm;56839;52.208;5.074;2022-07-29T00:51:52;47.35;39.79;56.20;;
66462;Laerm;56839;52.208;5.074;2022-07-29T00:52:03;58.86;47.56;66.12;;
66462;Laerm;56839;52.208;5.074;2022-07-29T00:52:14;63.58;58.39;68.17;;
66462;Laerm;56839;52.208;5.074;2022-07-29T00:52:25;57.52;50.93;64.21;;
66462;Laerm;56839;52.208;5.074;2022-07-29T00:52:35;51.28;44.20;58.53;;
66462;Laerm;56839;52.208;5.074;2022-07-29T00:52:46;44.17;37.72;49.16;;
66462;Laerm;56839;52.208;5.074;2022-07-29T00:52:57;42.20;36.37;50.62;;
66462;Laerm;56839;52.208;5.074;2022-07-29T00:53:09;41.45;35.37;50.57;;
66462;Laerm;56839;52.208;5.074;2022-07-29T00:53:21;39.49;33.31;48.89;;
66462;Laerm;56839;52.208;5.074;2022-07-29T00:53:33;40.94;33.41;57.86;;
66462;Laerm;56839;52.208;5.074;2022-07-29T00:53:43;41.50;34.33;49.37;;
66462;Laerm;56839;52.208;5.074;2022-07-29T00:53:54;37.64;33.05;46.90;;
66462;Laerm;56839;52.208;5.074;2022-07-29T00:54:04;42.87;36.14;51.13;;
66462;Laerm;56839;52.208;5.074;2022-07-29T00:54:15;39.64;32.14;52.86;;
66462;Laerm;56839;52.208;5.074;2022-07-29T00:54:25;36.23;32.12;48.41;;
66462;Laerm;56839;52.208;5.074;2022-07-29T00:54:38;35.54;31.90;46.29;;
66462;Laerm;56839;52.208;5.074;2022-07-29T00:54:48;38.99;31.88;47.64;;
66462;Laerm;56839;52.208;5.074;2022-07-29T00:54:59;36.82;31.91;49.07;;
66462;Laerm;56839;52.208;5.074;2022-07-29T00:55:13;42.75;33.54;51.52;;
66462;Laerm;56839;52.208;5.074;2022-07-29T00:55:24;41.43;35.88;49.37;;
66462;Laerm;56839;52.208;5.074;2022-07-29T00:55:34;42.50;34.87;53.41;;
66462;Laerm;56839;52.208;5.074;2022-07-29T00:55:45;42.59;34.50;53.49;;
66462;Laerm;56839;52.208;5.074;2022-07-29T00:55:56;38.68;34.75;49.39;;
66462;Laerm;56839;52.208;5.074;2022-07-29T00:56:06;44.19;37.36;53.27;;
66462;Laerm;56839;52.208;5.074;2022-07-29T00:56:16;44.63;34.13;53.94;;
66462;Laerm;56839;52.208;5.074;2022-07-29T00:56:27;34.96;31.35;45.68;;
66462;Laerm;56839;52.208;5.074;2022-07-29T00:56:42;38.79;31.65;50.07;;
66462;Laerm;56839;52.208;5.074;2022-07-29T00:56:53;34.85;30.92;44.39;;
66462;Laerm;56839;52.208;5.074;2022-07-29T00:57:03;38.01;32.94;47.40;;
66462;Laerm;56839;52.208;5.074;2022-07-29T00:57:15;41.22;33.77;53.29;;
66462;Laerm;56839;52.208;5.074;2022-07-29T00:57:26;41.89;33.42;53.86;;
66462;Laerm;56839;52.208;5.074;2022-07-29T00:57:37;39.56;33.84;49.36;;
66462;Laerm;56839;52.208;5.074;2022-07-29T00:57:47;42.35;35.18;54.56;;
66462;Laerm;56839;52.208;5.074;2022-07-29T00:57:59;39.13;31.34;50.73;;
66462;Laerm;56839;52.208;5.074;2022-07-29T00:58:10;37.88;32.40;47.42;;
66462;Laerm;56839;52.208;5.074;2022-07-29T00:58:22;37.41;33.71;44.95;;
66462;Laerm;56839;52.208;5.074;2022-07-29T00:58:32;43.25;34.83;50.89;;
66462;Laerm;56839;52.208;5.074;2022-07-29T00:58:43;43.19;34.03;57.57;;
66462;Laerm;56839;52.208;5.074;2022-07-29T00:58:53;42.52;33.12;53.86;;
66462;Laerm;56839;52.208;5.074;2022-07-29T00:59:05;40.29;35.28;49.15;;
66462;Laerm;56839;52.208;5.074;2022-07-29T00:59:15;36.66;33.33;47.44;;
66462;Laerm;56839;52.208;5.074;2022-07-29T00:59:26;37.81;33.10;47.88;;
66462;Laerm;56839;52.208;5.074;2022-07-29T00:59:36;38.77;33.19;49.00;;
66462;Laerm;56839;52.208;5.074;2022-07-29T00:59:47;40.61;34.87;51.27;;
66462;Laerm;56839;52.208;5.074;2022-07-29T00:59:57;37.56;32.61;52.65;;
66462;Laerm;56839;52.208;5.074;2022-07-29T01:00:09;39.51;32.49;50.18;;
66462;Laerm;56839;52.208;5.074;2022-07-29T01:00:21;40.03;32.11;50.64;;
66462;Laerm;56839;52.208;5.074;2022-07-29T01:00:32;41.54;32.82;51.21;;
66462;Laerm;56839;52.208;5.074;2022-07-29T01:00:42;36.88;31.68;47.59;;
66462;Laerm;56839;52.208;5.074;2022-07-29T01:00:53;36.73;30.94;46.31;;
66462;Laerm;56839;52.208;5.074;2022-07-29T01:01:03;38.71;32.44;52.20;;
66462;Laerm;56839;52.208;5.074;2022-07-29T01:01:13;39.59;33.87;48.35;;